Time;durP1;ratioP1;P1;durP2;ratioP2;P2;SDS_P1;SDS_P2;PMS_P1;PMS_P2;Temp;Humidity;BMP_temperature;BMP_pressure;BME280_temperature;BME280_humidity;BME280_pressure;Samples;Min_cycle;Max_cycle;Signal;HPM_P1;HPM_P2
2023/06/18 00:02:23;;;;;;;12.33;6.03;;;16.70;58.60;;;;;;5982021;24;20423;-67
2023/06/18 00:04:50;;;;;;;11.27;6.50;;;16.80;58.10;;;;;;5981501;24;20745;-67
2023/06/18 00:07:16;;;;;;;11.40;5.90;;;16.90;59.00;;;;;;5981887;24;20439;-67
2023/06/18 00:09:43;;;;;;;11.00;6.50;;;16.90;59.00;;;;;;5981981;24;20429;-67
2023/06/18 00:12:11;;;;;;;12.07;7.20;;;17.00;55.40;;;;;;5981503;24;20438;-67
2023/06/18 00:14:39;;;;;;;11.80;6.73;;;17.00;52.90;;;;;;5981638;24;20419;-67
2023/06/18 00:17:06;;;;;;;13.60;6.50;;;17.00;52.60;;;;;;5982079;24;20415;-67
2023/06/18 00:19:33;;;;;;;12.03;6.30;;;17.00;50.50;;;;;;5981244;24;20502;-67
2023/06/18 00:22:00;;;;;;;10.70;6.30;;;17.00;50.40;;;;;;5982018;24;20498;-67
2023/06/18 00:24:27;;;;;;;8.90;6.10;;;17.10;50.50;;;;;;5980960;24;20490;-67
2023/06/18 00:26:54;;;;;;;12.67;7.07;;;17.10;50.50;;;;;;5981991;24;20443;-67
2023/06/18 00:29:21;;;;;;;14.43;7.37;;;16.90;59.00;;;;;;5981673;24;20427;-67
2023/06/18 00:31:49;;;;;;;11.23;6.03;;;16.80;57.00;;;;;;5981861;24;20798;-67
2023/06/18 00:34:17;;;;;;;12.70;6.57;;;16.70;58.80;;;;;;5981078;24;20479;-67
2023/06/18 00:36:50;;;;;;;14.97;6.60;;;16.60;55.80;;;;;;5981778;24;20790;-67
2023/06/18 00:39:17;;;;;;;12.83;6.40;;;16.70;51.10;;;;;;5981675;24;20869;-67
2023/06/18 00:41:46;;;;;;;10.47;7.00;;;16.60;50.90;;;;;;5982316;24;20502;-67
2023/06/18 00:44:13;;;;;;;12.03;6.60;;;16.50;56.00;;;;;;5983466;24;20809;-67
2023/06/18 00:46:41;;;;;;;10.10;6.80;;;16.40;54.70;;;;;;5983758;24;20441;-67
2023/06/18 00:49:10;;;;;;;10.63;5.43;;;16.30;55.60;;;;;;5983218;24;20423;-66
2023/06/18 00:51:37;;;;;;;10.60;6.33;;;16.20;58.30;;;;;;5983622;24;20908;-67
2023/06/18 00:54:04;;;;;;;12.10;6.37;;;16.10;61.40;;;;;;5983124;24;20507;-67
2023/06/18 00:56:32;;;;;;;11.47;6.77;;;16.00;61.30;;;;;;5983583;24;20426;-67
2023/06/18 00:58:59;;;;;;;11.70;6.80;;;15.90;64.30;;;;;;5983523;24;20787;-66
2023/06/18 01:01:26;;;;;;;10.10;6.90;;;15.80;66.30;;;;;;5982964;24;20419;-67
2023/06/18 01:03:53;;;;;;;17.13;7.83;;;15.70;66.50;;;;;;5982440;24;20419;-67
2023/06/18 01:06:22;;;;;;;11.17;6.77;;;15.60;67.80;;;;;;5983428;24;20779;-67
2023/06/18 01:08:49;;;;;;;12.23;6.97;;;15.60;66.10;;;;;;5982603;24;20755;-67
2023/06/18 01:11:19;;;;;;;13.93;6.00;;;15.60;66.10;;;;;;5983372;24;20427;-67
2023/06/18 01:13:46;;;;;;;14.23;5.93;;;15.60;66.10;;;;;;5982983;24;20423;-67
2023/06/18 01:16:14;;;;;;;12.13;6.87;;;15.60;64.50;;;;;;5983186;24;20432;-67
2023/06/18 01:18:45;;;;;;;15.07;6.50;;;15.50;62.60;;;;;;5983406;24;20422;-67
2023/06/18 01:21:15;;;;;;;9.80;6.83;;;15.50;61.80;;;;;;5982209;24;20513;-67
2023/06/18 01:23:54;;;;;;;12.30;6.37;;;15.40;65.90;;;;;;5983396;24;20408;-67
2023/06/18 01:26:22;;;;;;;12.63;5.93;;;15.30;66.90;;;;;;5982994;24;20925;-67
2023/06/18 01:28:51;;;;;;;10.63;6.73;;;15.20;75.50;;;;;;5983241;24;20443;-67
2023/06/18 01:31:21;;;;;;;12.10;6.83;;;15.00;78.40;;;;;;5982735;24;20510;-67
2023/06/18 01:33:56;;;;;;;10.90;7.37;;;14.90;81.40;;;;;;5982437;24;20920;-67
2023/06/18 01:36:34;;;;;;;13.73;6.93;;;14.80;81.40;;;;;;5982591;24;20938;-67
2023/06/18 01:39:08;;;;;;;16.07;7.10;;;14.70;83.50;;;;;;5983260;24;20399;-67
2023/06/18 01:41:40;;;;;;;14.57;7.30;;;14.70;83.40;;;;;;5983291;24;20403;-67
2023/06/18 01:44:12;;;;;;;13.37;7.87;;;14.70;83.00;;;;;;5982953;24;20467;-67
2023/06/18 01:46:41;;;;;;;14.73;7.47;;;14.70;81.20;;;;;;5983187;24;20515;-67
2023/06/18 01:49:09;;;;;;;13.23;8.80;;;14.70;74.90;;;;;;5982675;24;20426;-67
2023/06/18 01:51:37;;;;;;;17.93;7.17;;;14.80;73.40;;;;;;5982857;24;20419;-67
2023/06/18 01:54:07;;;;;;;14.40;7.90;;;14.70;77.80;;;;;;5981832;24;20426;-67
2023/06/18 01:56:36;;;;;;;17.87;6.60;;;14.60;76.40;;;;;;5982421;24;20985;-67
2023/06/18 01:59:03;;;;;;;14.57;8.30;;;14.50;76.90;;;;;;5982795;24;20905;-67
2023/06/18 02:01:31;;;;;;;12.70;7.37;;;14.60;81.10;;;;;;5983084;24;20507;-67
2023/06/18 02:03:58;;;;;;;13.80;6.70;;;14.60;81.10;;;;;;5982788;24;20419;-68
2023/06/18 02:06:24;;;;;;;10.20;7.17;;;14.50;81.10;;;;;;5982391;24;20429;-67
2023/06/18 02:08:51;;;;;;;12.47;7.90;;;14.50;81.10;;;;;;5982870;24;20450;-67
2023/06/18 02:11:20;;;;;;;14.70;7.70;;;14.40;81.00;;;;;;5982497;24;20504;-67
2023/06/18 02:13:47;;;;;;;12.60;8.20;;;14.40;82.90;;;;;;5982350;24;20411;-67
2023/06/18 02:16:13;;;;;;;11.10;7.20;;;14.30;80.90;;;;;;5983063;24;20754;-68
2023/06/18 02:18:41;;;;;;;12.67;7.17;;;14.20;80.80;;;;;;5982263;24;20801;-67
2023/06/18 02:21:08;;;;;;;9.47;6.80;;;14.20;81.70;;;;;;5982850;24;20420;-67
2023/06/18 02:23:35;;;;;;;12.53;6.90;;;14.10;80.80;;;;;;5982162;24;20420;-67
2023/06/18 02:26:03;;;;;;;10.27;6.80;;;14.10;84.60;;;;;;5982213;24;20507;-67
2023/06/18 02:28:31;;;;;;;12.20;7.97;;;14.00;88.30;;;;;;5981923;24;20443;-67
2023/06/18 02:30:58;;;;;;;10.50;7.70;;;13.90;85.40;;;;;;5982941;24;20430;-67
2023/06/18 02:33:25;;;;;;;11.63;7.43;;;13.90;83.70;;;;;;5981933;24;20423;-67
2023/06/18 02:35:52;;;;;;;19.23;9.17;;;13.90;84.30;;;;;;5982583;24;20420;-67
2023/06/18 02:38:19;;;;;;;14.73;9.20;;;13.90;84.60;;;;;;5982461;24;20753;-67
2023/06/18 02:40:45;;;;;;;11.23;8.20;;;13.80;88.10;;;;;;5982532;24;20922;-67
2023/06/18 02:43:12;;;;;;;14.23;9.37;;;13.90;88.10;;;;;;5982473;24;20420;-67
2023/06/18 02:45:41;;;;;;;12.50;7.93;;;14.00;88.30;;;;;;5982164;24;20426;-67
2023/06/18 02:48:07;;;;;;;20.97;9.43;;;13.90;88.20;;;;;;5982605;24;21074;-67
2023/06/18 02:50:34;;;;;;;12.97;9.00;;;13.90;88.20;;;;;;5982409;24;20419;-67
2023/06/18 02:53:04;;;;;;;16.00;8.63;;;13.80;88.10;;;;;;5982831;24;20429;-67
2023/06/18 02:55:32;;;;;;;12.20;9.17;;;13.80;91.40;;;;;;5982498;24;20422;-67
2023/06/18 02:57:58;;;;;;;13.10;9.47;;;13.70;92.50;;;;;;5981855;24;20427;-67
2023/06/18 03:00:25;;;;;;;14.07;9.87;;;13.60;92.40;;;;;;5982174;24;20899;-67
2023/06/18 03:02:53;;;;;;;14.53;8.97;;;13.50;93.80;;;;;;5982490;24;20434;-67
2023/06/18 03:05:20;;;;;;;18.53;12.20;;;13.40;95.70;;;;;;5981915;24;20727;-67
2023/06/18 03:07:47;;;;;;;15.00;13.10;;;13.30;97.30;;;;;;5982053;24;20439;-67
2023/06/18 03:10:14;;;;;;;19.40;15.40;;;13.20;98.90;;;;;;5982443;24;20426;-67
2023/06/18 03:12:41;;;;;;;24.63;14.83;;;13.10;99.90;;;;;;5981873;24;20453;-67
2023/06/18 03:15:08;;;;;;;19.93;15.00;;;13.10;99.90;;;;;;5981421;24;20423;-67
2023/06/18 03:17:35;;;;;;;19.60;17.80;;;13.10;99.90;;;;;;5982150;24;20426;-65
2023/06/18 03:20:06;;;;;;;19.40;17.43;;;13.10;99.90;;;;;;5982139;24;20423;-64
2023/06/18 03:22:33;;;;;;;19.90;17.90;;;13.10;99.90;;;;;;5982327;24;20441;-64
2023/06/18 03:25:01;;;;;;;20.33;18.30;;;13.10;99.90;;;;;;5981917;24;20419;-64
2023/06/18 03:27:28;;;;;;;18.20;16.60;;;13.10;99.90;;;;;;5982301;24;20426;-65
2023/06/18 03:29:55;;;;;;;20.37;18.53;;;13.10;99.90;;;;;;5982079;24;20445;-65
2023/06/18 03:32:22;;;;;;;21.77;19.53;;;13.10;99.90;;;;;;5981741;24;20427;-64
2023/06/18 03:34:49;;;;;;;21.47;19.47;;;13.10;99.90;;;;;;5980023;24;20986;-64
2023/06/18 03:37:17;;;;;;;22.40;20.57;;;13.10;99.90;;;;;;5982525;24;20597;-64
2023/06/18 03:39:45;;;;;;;26.23;22.03;;;13.10;99.90;;;;;;5982257;24;20771;-64
2023/06/18 03:42:11;;;;;;;20.67;18.87;;;13.20;99.90;;;;;;5982233;24;20442;-64
2023/06/18 03:44:38;;;;;;;20.07;17.87;;;13.30;99.90;;;;;;5981653;24;20429;-64
2023/06/18 03:47:06;;;;;;;17.63;15.77;;;13.40;99.90;;;;;;5982367;24;20501;-64
2023/06/18 03:49:33;;;;;;;20.53;15.77;;;13.40;99.90;;;;;;5982039;24;20443;-65
2023/06/18 03:52:00;;;;;;;16.73;13.63;;;13.50;99.90;;;;;;5981909;24;20429;-65
2023/06/18 03:54:28;;;;;;;14.73;12.20;;;13.50;99.10;;;;;;5981690;24;20748;-65
2023/06/18 03:56:55;;;;;;;16.23;12.20;;;13.60;98.60;;;;;;5982341;24;20765;-65
2023/06/18 03:59:22;;;;;;;15.30;10.77;;;13.70;98.10;;;;;;5981722;24;20416;-65
2023/06/18 04:01:48;;;;;;;11.67;8.90;;;13.80;96.60;;;;;;5982046;24;20418;-65
2023/06/18 04:04:15;;;;;;;19.07;10.40;;;13.90;95.90;;;;;;5981710;24;20430;-65
2023/06/18 04:06:42;;;;;;;13.60;10.17;;;14.00;96.00;;;;;;5982310;24;20434;-65
2023/06/18 04:09:10;;;;;;;18.70;11.07;;;14.00;94.90;;;;;;5981789;24;20439;-65
2023/06/18 04:11:40;;;;;;;15.07;9.07;;;14.10;94.20;;;;;;5981789;24;20427;-65
2023/06/18 04:14:07;;;;;;;14.83;9.47;;;14.20;92.70;;;;;;5981517;24;20471;-65
2023/06/18 04:16:33;;;;;;;16.73;8.97;;;14.20;92.70;;;;;;5983052;24;20742;-65
2023/06/18 04:19:00;;;;;;;16.03;10.80;;;14.40;92.80;;;;;;5983633;24;20426;-65
2023/06/18 04:21:27;;;;;;;11.73;9.27;;;14.50;96.20;;;;;;5984111;24;20419;-65
2023/06/18 04:23:55;;;;;;;13.83;8.60;;;14.60;94.40;;;;;;5983587;24;20423;-65
2023/06/18 04:26:22;;;;;;;14.07;11.27;;;14.70;95.00;;;;;;5984234;24;20430;-65
2023/06/18 04:28:51;;;;;;;14.77;10.80;;;14.80;96.30;;;;;;5983395;24;20505;-65
2023/06/18 04:31:18;;;;;;;14.37;10.63;;;15.00;96.40;;;;;;5983361;24;20475;-65
2023/06/18 04:33:45;;;;;;;15.00;10.37;;;15.10;93.10;;;;;;5983357;24;20423;-68
2023/06/18 04:36:11;;;;;;;14.00;10.20;;;15.40;93.20;;;;;;5983708;24;20427;-65
2023/06/18 04:38:38;;;;;;;19.50;10.47;;;15.60;88.00;;;;;;5982666;24;20415;-65
2023/06/18 04:41:05;;;;;;;18.47;10.73;;;15.80;80.70;;;;;;5984024;24;20423;-65
2023/06/18 04:43:33;;;;;;;13.60;8.87;;;16.10;76.20;;;;;;5983866;24;20419;-65
2023/06/18 04:46:02;;;;;;;20.40;9.83;;;16.30;74.80;;;;;;5983627;24;20419;-65
2023/06/18 04:48:28;;;;;;;12.90;9.20;;;16.60;73.40;;;;;;5983255;24;20446;-65
2023/06/18 04:50:55;;;;;;;14.07;9.20;;;16.70;68.30;;;;;;5983813;24;20420;-65
2023/06/18 04:53:22;;;;;;;16.67;8.47;;;16.90;67.30;;;;;;5982842;24;20419;-65
2023/06/18 04:55:49;;;;;;;13.83;9.90;;;17.00;67.40;;;;;;5983872;24;20423;-65
2023/06/18 04:58:16;;;;;;;14.20;8.43;;;17.10;66.40;;;;;;5983263;24;20422;-65
2023/06/18 05:00:44;;;;;;;12.87;8.80;;;17.20;64.20;;;;;;5983860;24;20506;-65
2023/06/18 05:03:12;;;;;;;14.87;9.20;;;17.30;64.10;;;;;;5983159;24;20420;-65
2023/06/18 05:05:39;;;;;;;23.30;9.30;;;17.40;66.20;;;;;;5983764;24;20434;-65
2023/06/18 05:08:05;;;;;;;16.40;9.73;;;17.50;63.30;;;;;;5983149;24;20444;-65
2023/06/18 05:10:33;;;;;;;12.50;9.03;;;17.60;64.10;;;;;;5981987;24;20426;-65
2023/06/18 05:13:00;;;;;;;15.00;8.80;;;17.60;65.10;;;;;;5983200;24;20427;-65
2023/06/18 05:15:27;;;;;;;17.03;7.70;;;17.70;66.30;;;;;;5983133;24;20427;-65
2023/06/18 05:17:54;;;;;;;13.50;9.60;;;17.90;66.60;;;;;;5982870;24;20934;-65
2023/06/18 05:20:22;;;;;;;12.37;7.77;;;18.00;66.10;;;;;;5982507;24;20419;-65
2023/06/18 05:22:49;;;;;;;13.60;9.30;;;18.10;59.00;;;;;;5983388;24;20424;-65
2023/06/18 05:25:16;;;;;;;12.00;8.47;;;18.20;55.00;;;;;;5982738;24;20426;-65
2023/06/18 05:27:42;;;;;;;12.60;8.83;;;18.50;54.90;;;;;;5982528;24;20430;-65
2023/06/18 05:30:10;;;;;;;11.83;8.23;;;18.50;51.80;;;;;;5983203;24;20450;-65
2023/06/18 05:32:37;;;;;;;13.43;9.37;;;18.60;51.90;;;;;;5983271;24;20420;-65
2023/06/18 05:35:04;;;;;;;12.30;9.07;;;18.60;51.90;;;;;;5983060;24;20419;-65
2023/06/18 05:37:32;;;;;;;11.37;7.53;;;18.70;50.60;;;;;;5983488;24;20734;-65
2023/06/18 05:39:59;;;;;;;13.17;9.17;;;18.70;52.00;;;;;;5982830;24;20901;-65
2023/06/18 05:42:26;;;;;;;10.57;7.27;;;18.80;52.10;;;;;;5983403;24;20420;-65
2023/06/18 05:44:54;;;;;;;12.23;8.80;;;18.90;53.10;;;;;;5982554;24;20455;-65
2023/06/18 05:47:21;;;;;;;10.23;7.17;;;19.10;52.40;;;;;;5980693;24;20424;-65
2023/06/18 05:49:48;;;;;;;11.97;8.00;;;19.20;50.10;;;;;;5983077;24;20446;-66
2023/06/18 05:52:14;;;;;;;11.93;8.07;;;19.40;49.60;;;;;;5992176;24;20430;-65
2023/06/18 05:54:43;;;;;;;12.97;8.20;;;19.60;48.20;;;;;;5982907;24;20747;-65
2023/06/18 05:57:11;;;;;;;11.70;8.13;;;19.80;46.80;;;;;;5982747;24;20993;-65
2023/06/18 05:59:38;;;;;;;12.40;7.67;;;19.90;46.00;;;;;;5981496;24;20439;-65
2023/06/18 06:02:05;;;;;;;11.60;7.03;;;20.30;44.70;;;;;;5982871;24;20424;-65
2023/06/18 06:04:31;;;;;;;10.80;7.80;;;20.60;44.90;;;;;;5982612;24;20430;-65
2023/06/18 06:06:58;;;;;;;11.97;8.27;;;20.80;42.10;;;;;;5983241;24;20445;-64
2023/06/18 06:09:25;;;;;;;12.20;6.90;;;21.00;38.40;;;;;;5982110;24;20776;-65
2023/06/18 06:11:53;;;;;;;12.23;7.30;;;21.10;36.30;;;;;;5982713;24;20427;-65
2023/06/18 06:14:20;;;;;;;13.53;6.17;;;21.20;36.40;;;;;;5982661;24;20428;-66
2023/06/18 06:16:47;;;;;;;9.83;7.27;;;21.60;32.60;;;;;;5983521;24;20424;-65
2023/06/18 06:19:14;;;;;;;13.40;8.30;;;21.90;31.40;;;;;;5983000;24;20437;-65
2023/06/18 06:21:41;;;;;;;13.03;6.90;;;22.20;33.20;;;;;;5982321;24;20420;-65
2023/06/18 06:24:08;;;;;;;15.83;8.00;;;22.20;27.40;;;;;;5982321;24;20426;-65
2023/06/18 06:26:34;;;;;;;11.23;7.90;;;22.30;25.50;;;;;;5982946;24;20510;-65
2023/06/18 06:29:03;;;;;;;9.93;6.13;;;22.60;26.80;;;;;;5982368;24;20967;-65
2023/06/18 06:31:30;;;;;;;11.37;6.63;;;22.80;24.10;;;;;;5983016;24;20757;-65
2023/06/18 06:33:56;;;;;;;12.40;6.67;;;22.80;21.70;;;;;;5979645;24;20948;-65
2023/06/18 06:36:23;;;;;;;22.03;7.97;;;22.90;18.90;;;;;;5982045;24;20581;-65
2023/06/18 06:38:50;;;;;;;12.30;6.40;;;22.90;19.50;;;;;;5981793;24;20454;-65
2023/06/18 06:41:17;;;;;;;10.23;5.70;;;23.00;19.80;;;;;;5981912;24;20423;-65
2023/06/18 06:43:44;;;;;;;9.67;6.53;;;23.20;20.60;;;;;;5980811;24;21090;-65
2023/06/18 06:46:12;;;;;;;10.10;6.30;;;23.30;22.10;;;;;;5981157;24;20905;-65
2023/06/18 06:48:40;;;;;;;12.87;7.40;;;23.60;20.70;;;;;;5980814;24;20439;-64
2023/06/18 06:51:07;;;;;;;9.50;5.77;;;24.10;19.50;;;;;;5981789;24;20424;-64
2023/06/18 06:53:33;;;;;;;8.47;6.20;;;24.30;17.30;;;;;;5980849;24;20514;-65
2023/06/18 06:56:00;;;;;;;8.93;5.70;;;24.50;15.90;;;;;;5982168;24;20730;-66
2023/06/18 06:58:27;;;;;;;9.33;6.13;;;24.90;15.70;;;;;;5982543;24;20420;-65
2023/06/18 07:00:54;;;;;;;10.10;5.90;;;25.00;12.70;;;;;;5982444;24;20472;-65
2023/06/18 07:03:22;;;;;;;10.40;6.70;;;25.30;11.30;;;;;;5982450;24;20430;-66
2023/06/18 07:05:50;;;;;;;11.47;6.10;;;25.80;8.60;;;;;;5982706;24;20420;-65
2023/06/18 07:08:17;;;;;;;10.87;6.97;;;26.00;9.40;;;;;;5982449;24;20518;-66
2023/06/18 07:10:44;;;;;;;13.40;7.10;;;26.10;7.70;;;;;;5982473;24;20453;-67
2023/06/18 07:13:11;;;;;;;11.13;6.60;;;26.30;6.80;;;;;;5981504;24;21020;-67
2023/06/18 07:15:38;;;;;;;9.47;6.20;;;26.30;3.30;;;;;;5982036;24;20423;-67
2023/06/18 07:18:05;;;;;;;11.47;6.07;;;26.70;1.20;;;;;;5982261;24;20802;-66
2023/06/18 07:20:33;;;;;;;9.63;6.13;;;26.60;1.10;;;;;;5982115;24;20415;-67
2023/06/18 07:23:00;;;;;;;9.80;6.67;;;26.50;1.10;;;;;;5981888;24;20423;-67
2023/06/18 07:25:27;;;;;;;10.27;6.40;;;26.40;1.00;;;;;;5981782;24;20807;-65
2023/06/18 07:27:53;;;;;;;8.97;5.90;;;26.10;2.90;;;;;;5981885;24;20426;-65
2023/06/18 07:30:20;;;;;;;11.00;6.87;;;26.20;2.10;;;;;;5981838;24;20447;-66
2023/06/18 07:32:47;;;;;;;12.57;5.87;;;26.10;2.40;;;;;;5981991;24;20738;-66
2023/06/18 07:35:14;;;;;;;9.63;6.30;;;26.10;4.00;;;;;;5979886;24;20736;-65
2023/06/18 07:37:42;;;;;;;9.03;6.17;;;25.80;3.00;;;;;;5979875;24;20423;-64
2023/06/18 07:40:10;;;;;;;11.07;6.57;;;25.90;1.00;;;;;;5980646;24;20471;-64
2023/06/18 07:42:37;;;;;;;9.20;6.00;;;26.10;1.00;;;;;;5981187;24;20798;-64
2023/06/18 07:45:05;;;;;;;10.60;5.60;;;26.50;1.10;;;;;;5980061;24;20419;-64
2023/06/18 07:47:32;;;;;;;9.30;6.00;;;26.90;1.00;;;;;;5980851;24;20502;-64
2023/06/18 07:49:59;;;;;;;9.53;6.07;;;27.10;1.40;;;;;;5981033;24;20413;-64
2023/06/18 07:52:26;;;;;;;10.50;6.70;;;27.10;1.00;;;;;;5980680;24;20511;-65
2023/06/18 07:54:55;;;;;;;9.63;6.10;;;27.30;1.00;;;;;;5980425;24;20897;-65
2023/06/18 07:57:22;;;;;;;9.97;5.53;;;27.70;1.00;;;;;;5980520;24;20424;-65
2023/06/18 07:59:49;;;;;;;8.90;6.07;;;28.30;1.00;;;;;;5980065;24;20963;-65
2023/06/18 08:02:16;;;;;;;9.40;6.10;;;29.20;1.00;;;;;;5981059;24;20525;-65
2023/06/18 08:04:43;;;;;;;7.77;5.60;;;29.20;1.00;;;;;;5980520;24;20421;-65
2023/06/18 08:07:09;;;;;;;8.50;5.53;;;29.40;1.00;;;;;;5980723;24;20502;-64
2023/06/18 08:09:36;;;;;;;8.30;5.90;;;29.00;1.00;;;;;;5980081;24;20475;-67
2023/06/18 08:12:06;;;;;;;11.87;7.27;;;28.80;1.00;;;;;;5981326;24;20550;-67
2023/06/18 08:14:33;;;;;;;8.57;5.63;;;28.80;1.00;;;;;;5981262;24;20475;-67
2023/06/18 08:17:00;;;;;;;9.70;5.70;;;28.70;1.00;;;;;;5980997;24;20443;-67
2023/06/18 08:19:27;;;;;;;9.83;6.00;;;28.80;1.00;;;;;;5980862;24;20423;-67
2023/06/18 08:21:54;;;;;;;10.30;6.17;;;28.70;1.00;;;;;;5981153;24;20422;-66
2023/06/18 08:24:21;;;;;;;9.00;5.63;;;29.00;1.00;;;;;;5980447;24;20516;-66
2023/06/18 08:26:47;;;;;;;11.13;6.43;;;29.00;1.00;;;;;;5980928;24;20421;-66
2023/06/18 08:29:16;;;;;;;9.00;6.47;;;28.90;1.00;;;;;;5980989;24;20527;-66
2023/06/18 08:31:43;;;;;;;9.83;6.70;;;28.70;1.00;;;;;;5981032;24;20790;-65
2023/06/18 08:34:09;;;;;;;9.70;5.93;;;28.80;1.00;;;;;;5980652;24;20485;-66
2023/06/18 08:36:37;;;;;;;8.90;6.10;;;28.80;1.00;;;;;;5980610;24;20747;-66
2023/06/18 08:39:05;;;;;;;9.77;6.47;;;28.70;1.00;;;;;;5978481;24;20423;-66
2023/06/18 08:41:32;;;;;;;12.50;5.97;;;28.60;1.00;;;;;;5981118;24;20394;-66
2023/06/18 08:44:00;;;;;;;9.30;6.27;;;28.80;1.00;;;;;;5980053;24;20502;-66
2023/06/18 08:46:30;;;;;;;8.70;5.93;;;28.60;1.00;;;;;;5980775;24;20754;-66
2023/06/18 08:49:00;;;;;;;11.80;5.90;;;28.60;1.00;;;;;;5981570;24;20439;-66
2023/06/18 08:51:27;;;;;;;10.53;6.30;;;28.70;1.00;;;;;;5981763;24;20420;-66
2023/06/18 08:54:02;;;;;;;9.50;6.27;;;29.10;1.00;;;;;;5981103;24;20423;-66
2023/06/18 08:56:30;;;;;;;9.37;6.30;;;29.10;1.00;;;;;;5982269;24;20576;-66
2023/06/18 08:58:58;;;;;;;10.13;6.27;;;29.50;1.00;;;;;;5981851;24;20446;-66
2023/06/18 09:01:26;;;;;;;10.43;6.03;;;30.10;1.00;;;;;;5981657;24;20418;-66
2023/06/18 09:03:55;;;;;;;10.00;6.63;;;30.60;1.00;;;;;;5981846;24;20427;-66
2023/06/18 09:06:24;;;;;;;8.40;5.50;;;30.80;1.00;;;;;;5983176;24;20398;-67
2023/06/18 09:08:50;;;;;;;13.20;7.57;;;31.40;1.00;;;;;;5982887;24;20461;-66
2023/06/18 09:11:18;;;;;;;11.07;6.23;;;31.30;1.00;;;;;;5982910;24;20542;-67
2023/06/18 09:13:45;;;;;;;9.03;5.70;;;31.40;1.00;;;;;;5982462;24;20411;-66
2023/06/18 09:16:12;;;;;;;8.93;5.10;;;31.10;1.00;;;;;;5983096;24;20455;-67
2023/06/18 09:18:39;;;;;;;10.50;5.33;;;30.10;1.00;;;;;;5983033;24;20419;-66
2023/06/18 09:21:07;;;;;;;8.60;5.23;;;30.20;1.00;;;;;;5983373;24;20439;-67
2023/06/18 09:23:35;;;;;;;8.17;4.77;;;30.50;1.00;;;;;;5982153;24;20437;-67
2023/06/18 09:26:02;;;;;;;9.30;5.00;;;30.50;1.00;;;;;;5983722;24;20962;-67
2023/06/18 09:28:30;;;;;;;9.30;4.33;;;30.90;1.00;;;;;;5983044;24;20426;-66
2023/06/18 09:31:00;;;;;;;9.10;5.43;;;30.90;1.00;;;;;;5983496;24;20820;-66
2023/06/18 09:33:31;;;;;;;9.90;4.53;;;31.40;1.00;;;;;;5982213;24;20904;-66
2023/06/18 09:36:03;;;;;;;9.10;4.97;;;31.90;1.00;;;;;;5983617;24;20419;-67
2023/06/18 09:38:37;;;;;;;8.60;4.70;;;32.20;1.00;;;;;;5983033;24;20415;-64
2023/06/18 09:41:11;;;;;;;8.90;5.47;;;32.80;1.00;;;;;;5983117;24;20371;-64
2023/06/18 09:43:40;;;;;;;8.03;5.00;;;32.40;1.00;;;;;;5982666;24;20377;-64
2023/06/18 09:46:08;;;;;;;12.10;5.10;;;33.00;1.00;;;;;;5982802;24;20430;-63
2023/06/18 09:48:37;;;;;;;8.13;5.00;;;31.60;1.00;;;;;;5982734;24;20394;-63
2023/06/18 09:51:05;;;;;;;7.87;5.57;;;30.80;1.00;;;;;;5983076;24;20450;-63
2023/06/18 09:53:34;;;;;;;7.70;4.90;;;30.90;1.00;;;;;;5982626;24;20420;-66
2023/06/18 09:56:12;;;;;;;8.10;5.00;;;31.30;1.00;;;;;;5982537;24;20892;-65
2023/06/18 09:58:44;;;;;;;11.23;4.50;;;31.90;1.00;;;;;;5980601;24;20419;-65
2023/06/18 10:01:11;;;;;;;10.40;5.40;;;32.50;1.00;;;;;;5981885;24;20443;-66
2023/06/18 10:03:39;;;;;;;8.70;5.30;;;31.90;1.00;;;;;;5981767;24;20421;-66
2023/06/18 10:06:14;;;;;;;12.77;5.47;;;31.50;1.00;;;;;;5982220;24;20420;-66
2023/06/18 10:08:44;;;;;;;10.13;5.13;;;32.50;1.00;;;;;;5982545;24;20378;-66
2023/06/18 10:11:12;;;;;;;9.13;5.37;;;31.70;1.00;;;;;;5982765;24;20429;-65
2023/06/18 10:13:44;;;;;;;7.07;4.47;;;31.40;1.00;;;;;;5981995;24;20462;-66
2023/06/18 10:16:14;;;;;;;7.73;5.00;;;31.90;1.00;;;;;;5982977;24;20482;-65
2023/06/18 10:18:52;;;;;;;7.30;5.10;;;32.50;1.00;;;;;;5982907;24;20419;-66
2023/06/18 10:21:21;;;;;;;8.97;4.90;;;32.70;1.00;;;;;;5983330;24;20427;-66
2023/06/18 10:23:53;;;;;;;7.43;4.77;;;33.70;1.00;;;;;;5982495;24;20455;-66
2023/06/18 10:26:21;;;;;;;8.87;4.33;;;35.30;1.00;;;;;;5982747;24;20456;-65
2023/06/18 10:28:51;;;;;;;7.17;4.67;;;33.40;1.00;;;;;;5982614;24;20382;-65
2023/06/18 10:31:19;;;;;;;10.97;5.10;;;33.70;1.00;;;;;;5982640;24;20735;-66
2023/06/18 10:33:47;;;;;;;8.57;4.40;;;33.30;1.00;;;;;;5981641;24;20398;-65
2023/06/18 10:36:15;;;;;;;7.40;4.20;;;33.30;1.00;;;;;;5982658;24;20526;-66
2023/06/18 10:38:43;;;;;;;8.73;5.63;;;32.80;1.00;;;;;;5981566;24;20402;-66
2023/06/18 10:41:12;;;;;;;12.93;5.67;;;32.70;1.00;;;;;;5981306;24;20417;-68
2023/06/18 10:43:40;;;;;;;10.53;6.27;;;32.40;1.00;;;;;;5981268;24;20477;-68
2023/06/18 10:46:12;;;;;;;9.83;5.07;;;32.50;1.00;;;;;;5982810;24;20401;-68
2023/06/18 10:48:40;;;;;;;9.63;4.93;;;32.50;1.00;;;;;;5982628;24;20398;-67
2023/06/18 10:51:17;;;;;;;7.70;5.00;;;31.70;1.00;;;;;;5981835;24;20942;-66
2023/06/18 10:53:45;;;;;;;7.00;4.60;;;31.40;1.00;;;;;;5981451;24;20230;-65
2023/06/18 10:56:15;;;;;;;9.87;4.77;;;31.50;1.00;;;;;;5982304;24;20394;-65
2023/06/18 10:58:43;;;;;;;8.40;5.00;;;31.90;1.00;;;;;;5982029;24;20903;-65
2023/06/18 11:01:25;;;;;;;8.13;5.27;;;32.00;1.00;;;;;;5981967;24;20414;-66
2023/06/18 11:04:02;;;;;;;10.63;4.97;;;31.90;1.00;;;;;;5981380;24;20384;-66
2023/06/18 11:06:29;;;;;;;8.60;4.50;;;31.50;1.00;;;;;;5982829;24;20412;-65
2023/06/18 11:08:56;;;;;;;9.23;5.10;;;31.90;1.00;;;;;;5982507;24;20420;-66
2023/06/18 11:11:26;;;;;;;8.30;4.17;;;31.80;1.00;;;;;;5982694;24;20431;-66
2023/06/18 11:13:55;;;;;;;11.57;5.67;;;31.60;1.00;;;;;;5981818;24;20454;-66
2023/06/18 11:16:22;;;;;;;8.00;5.27;;;31.80;1.00;;;;;;5982872;24;20487;-66
2023/06/18 11:18:53;;;;;;;9.97;4.80;;;31.60;1.00;;;;;;5982693;24;20465;-67
2023/06/18 11:21:21;;;;;;;7.63;4.83;;;31.60;1.00;;;;;;5981589;24;20402;-66
2023/06/18 11:23:50;;;;;;;9.13;4.73;;;31.60;1.00;;;;;;5981273;24;20390;-66
2023/06/18 11:26:19;;;;;;;8.43;5.03;;;32.00;1.00;;;;;;5981730;24;20453;-67
2023/06/18 11:28:48;;;;;;;7.00;4.47;;;31.60;1.00;;;;;;5981354;24;20430;-66
2023/06/18 11:31:15;;;;;;;7.27;4.50;;;31.40;1.00;;;;;;5982205;24;20427;-66
2023/06/18 11:33:47;;;;;;;13.00;4.80;;;31.50;1.00;;;;;;5980790;24;20944;-66
2023/06/18 11:36:16;;;;;;;10.73;5.53;;;31.90;1.00;;;;;;5981902;24;20469;-67
2023/06/18 11:38:43;;;;;;;8.17;5.00;;;31.90;1.00;;;;;;5982270;24;20477;-67
2023/06/18 11:41:11;;;;;;;8.70;5.10;;;31.80;1.00;;;;;;5981871;24;20471;-67
2023/06/18 11:43:45;;;;;;;11.20;5.20;;;32.00;1.00;;;;;;5981433;24;20419;-67
2023/06/18 11:46:29;;;;;;;7.43;5.00;;;32.10;1.00;;;;;;5982577;24;20706;-68
2023/06/18 11:48:58;;;;;;;12.20;5.53;;;32.00;1.00;;;;;;5982208;24;20431;-67
2023/06/18 11:51:27;;;;;;;7.57;5.17;;;32.20;1.00;;;;;;5981975;24;20416;-67
2023/06/18 11:53:54;;;;;;;7.90;5.53;;;32.40;1.00;;;;;;5980756;24;20965;-69
2023/06/18 11:56:25;;;;;;;8.50;4.43;;;32.00;1.00;;;;;;5982367;24;20394;-67
2023/06/18 11:58:53;;;;;;;7.80;4.70;;;32.40;1.00;;;;;;5981890;24;20426;-68
2023/06/18 12:01:25;;;;;;;8.90;5.33;;;32.10;1.00;;;;;;5981617;24;20973;-67
2023/06/18 12:03:52;;;;;;;8.10;5.23;;;32.10;1.00;;;;;;5981757;24;20707;-66
2023/06/18 12:06:19;;;;;;;8.33;4.33;;;31.60;1.00;;;;;;5981714;24;20451;-67
2023/06/18 12:08:46;;;;;;;7.63;4.90;;;31.10;1.00;;;;;;5981905;24;20419;-67
2023/06/18 12:11:27;;;;;;;11.37;4.87;;;30.70;1.00;;;;;;5981591;24;20454;-66
2023/06/18 12:13:59;;;;;;;10.40;4.93;;;30.30;1.00;;;;;;5981721;24;20438;-67
2023/06/18 12:16:30;;;;;;;10.83;5.80;;;30.50;1.00;;;;;;5981688;24;20456;-67
2023/06/18 12:19:01;;;;;;;12.83;5.03;;;30.20;1.00;;;;;;5981786;24;20408;-67
2023/06/18 12:21:28;;;;;;;8.87;4.97;;;30.50;1.00;;;;;;5979347;24;20983;-67
2023/06/18 12:23:57;;;;;;;10.13;5.13;;;30.60;1.00;;;;;;5981234;24;20893;-66
2023/06/18 12:26:27;;;;;;;7.93;5.27;;;30.60;1.00;;;;;;5981137;24;20451;-67
2023/06/18 12:28:57;;;;;;;7.93;5.27;;;30.50;1.00;;;;;;5981939;24;20386;-67
2023/06/18 12:31:24;;;;;;;12.77;5.40;;;30.20;1.00;;;;;;5983367;24;20419;-67
2023/06/18 12:33:52;;;;;;;11.13;7.37;;;30.00;1.00;;;;;;5983731;24;20444;-67
2023/06/18 12:36:27;;;;;;;7.50;5.17;;;29.60;1.00;;;;;;5982180;24;20401;-66
2023/06/18 12:38:54;;;;;;;8.73;5.27;;;29.70;1.00;;;;;;5983670;24;20455;-67
2023/06/18 12:41:22;;;;;;;14.67;5.57;;;29.40;1.00;;;;;;5983396;24;20501;-67
2023/06/18 12:43:49;;;;;;;8.60;5.00;;;29.40;1.00;;;;;;5982924;24;20397;-67
2023/06/18 12:46:24;;;;;;;7.97;5.30;;;29.20;1.00;;;;;;5983547;24;20517;-67
2023/06/18 12:48:54;;;;;;;7.80;5.07;;;29.10;1.00;;;;;;5983728;24;20403;-67